createdAt,value
2017-11-28T00:02:02.086Z,4.40
2017-11-28T00:04:28.101Z,4.60
2017-11-28T00:06:54.108Z,4.93
2017-11-28T00:09:20.258Z,4.30
2017-11-28T00:11:46.232Z,4.60
2017-11-28T00:14:12.205Z,4.53
2017-11-28T00:16:38.439Z,4.63
2017-11-28T00:19:05.229Z,4.43
2017-11-28T00:21:31.240Z,4.45
2017-11-28T00:23:57.245Z,4.57
2017-11-28T00:26:23.214Z,4.60
2017-11-28T00:28:49.230Z,4.90
2017-11-28T00:31:15.225Z,4.47
2017-11-28T00:33:41.193Z,4.50
2017-11-28T00:36:07.169Z,4.70
2017-11-28T00:38:33.454Z,4.60
2017-11-28T00:40:59.453Z,4.70
2017-11-28T00:43:25.449Z,4.40
2017-11-28T00:45:51.739Z,4.72
2017-11-28T00:48:18.463Z,4.30
2017-11-28T00:50:44.426Z,4.00
2017-11-28T00:53:10.435Z,4.12
2017-11-28T00:55:37.138Z,4.20
2017-11-28T00:58:03.189Z,4.62
2017-11-28T01:00:30.678Z,4.50
2017-11-28T01:02:56.693Z,4.43
2017-11-28T01:05:22.665Z,4.00
2017-11-28T01:07:48.659Z,4.10
2017-11-28T01:10:14.648Z,4.03
2017-11-28T01:12:40.641Z,4.00
2017-11-28T01:15:06.969Z,4.18
2017-11-28T01:17:33.006Z,4.45
2017-11-28T01:19:59.739Z,4.20
2017-11-28T01:22:26.501Z,4.45
2017-11-28T01:24:52.471Z,3.92
2017-11-28T01:27:18.455Z,3.85
2017-11-28T01:29:44.465Z,4.60
2017-11-28T01:32:10.488Z,4.20
2017-11-28T01:34:36.466Z,4.50
2017-11-28T01:37:02.459Z,4.10
2017-11-28T01:39:28.445Z,4.30
2017-11-28T01:41:55.174Z,4.10
2017-11-28T01:44:22.211Z,4.60
2017-11-28T01:46:48.181Z,4.20
2017-11-28T01:49:14.161Z,4.10
2017-11-28T01:51:41.111Z,4.53
2017-11-28T01:54:07.822Z,4.40
2017-11-28T01:56:33.801Z,4.40
2017-11-28T01:58:59.781Z,5.17
2017-11-28T02:01:26.509Z,4.87
2017-11-28T02:03:52.476Z,3.80
2017-11-28T02:06:18.478Z,4.93
2017-11-28T02:08:45.200Z,3.87
2017-11-28T02:11:11.207Z,4.30
2017-11-28T02:13:37.219Z,3.95
2017-11-28T02:16:03.265Z,4.22
2017-11-28T02:18:29.299Z,4.00
2017-11-28T02:20:56.128Z,3.90
2017-11-28T02:23:22.090Z,3.55
2017-11-28T02:25:48.094Z,3.53
2017-11-28T02:28:14.830Z,3.30
2017-11-28T02:30:41.588Z,3.67
2017-11-28T02:33:07.562Z,3.50
2017-11-28T02:35:33.570Z,3.12
2017-11-28T02:38:02.479Z,3.17
2017-11-28T02:40:40.865Z,3.50
2017-11-28T02:43:06.847Z,3.40
2017-11-28T02:45:32.830Z,3.40
2017-11-28T02:47:58.847Z,3.15
2017-11-28T02:50:24.822Z,2.90
2017-11-28T02:52:50.811Z,3.60
2017-11-28T02:55:25.599Z,3.70
2017-11-28T02:57:51.590Z,3.50
2017-11-28T03:00:17.567Z,3.30
2017-11-28T03:02:43.552Z,3.58
2017-11-28T03:05:09.537Z,3.80
2017-11-28T03:07:36.269Z,3.90
2017-11-28T03:10:19.649Z,3.55
2017-11-28T03:12:48.498Z,3.45
2017-11-28T03:15:16.048Z,4.00
2017-11-28T03:17:42.821Z,3.70
2017-11-28T03:20:14.673Z,3.90
2017-11-28T03:22:40.648Z,4.40
2017-11-28T03:28:12.934Z,3.70
2017-11-28T03:30:41.738Z,4.40
2017-11-28T03:33:08.506Z,4.50
2017-11-28T03:35:34.465Z,4.70
2017-11-28T03:38:00.793Z,4.12
2017-11-28T03:40:26.768Z,3.90
2017-11-28T03:42:53.475Z,4.15
2017-11-28T03:45:22.590Z,4.10
2017-11-28T03:47:49.316Z,4.30
2017-11-28T03:50:17.324Z,4.30
2017-11-28T03:52:43.375Z,4.10
2017-11-28T03:55:09.346Z,4.60
2017-11-28T03:57:36.074Z,4.00
2017-11-28T04:00:03.625Z,4.10
2017-11-28T04:02:29.591Z,4.20
2017-11-28T04:04:55.589Z,5.03
2017-11-28T04:07:22.648Z,4.43
2017-11-28T04:09:48.613Z,4.40
2017-11-28T04:12:14.629Z,5.00
2017-11-28T04:14:40.620Z,5.00
2017-11-28T04:17:06.594Z,4.03
2017-11-28T04:19:32.618Z,4.43
2017-11-28T04:21:58.639Z,5.00
2017-11-28T04:24:24.607Z,4.50
2017-11-28T04:26:50.577Z,4.82
2017-11-28T04:29:17.434Z,4.67
2017-11-28T04:31:43.402Z,4.50
2017-11-28T04:34:09.373Z,4.80
2017-11-28T04:36:35.383Z,4.45
2017-11-28T04:39:01.367Z,5.15
2017-11-28T04:41:27.340Z,4.60
2017-11-28T04:43:53.310Z,4.50
2017-11-28T04:46:19.306Z,4.40
2017-11-28T04:48:45.319Z,4.60
2017-11-28T04:51:12.055Z,4.32
2017-11-28T04:53:38.786Z,4.62
2017-11-28T04:56:04.766Z,4.50
2017-11-28T04:58:30.750Z,4.30
2017-11-28T05:00:57.463Z,4.87
2017-11-28T05:03:23.449Z,5.43
2017-11-28T05:05:49.403Z,5.10
2017-11-28T05:08:15.370Z,4.78
2017-11-28T05:10:41.362Z,5.20
2017-11-28T05:13:08.091Z,5.30
2017-11-28T05:15:34.083Z,5.05
2017-11-28T05:18:00.056Z,4.67
2017-11-28T05:20:26.796Z,5.40
2017-11-28T05:22:53.508Z,5.80
2017-11-28T05:25:19.523Z,5.68
2017-11-28T05:27:45.550Z,5.50
2017-11-28T05:30:11.516Z,5.80
2017-11-28T05:32:37.497Z,5.20
2017-11-28T05:35:03.595Z,5.07
2017-11-28T05:37:29.565Z,5.20
2017-11-28T05:39:56.269Z,5.10
2017-11-28T05:42:22.270Z,5.18
2017-11-28T05:44:48.264Z,5.40
2017-11-28T05:47:14.238Z,5.40
2017-11-28T05:49:40.213Z,5.40
2017-11-28T05:52:06.189Z,5.10
2017-11-28T05:54:32.158Z,5.53
2017-11-28T05:56:58.387Z,5.90
2017-11-28T05:59:24.374Z,5.30
2017-11-28T06:01:51.099Z,5.80
2017-11-28T06:04:17.122Z,5.68
2017-11-28T06:06:43.090Z,5.60
2017-11-28T06:09:09.066Z,5.70
2017-11-28T06:11:35.085Z,5.60
2017-11-28T06:14:01.094Z,5.20
2017-11-28T06:16:27.898Z,5.80
2017-11-28T06:18:54.298Z,5.70
2017-11-28T06:21:21.030Z,5.40
2017-11-28T06:23:47.807Z,5.15
2017-11-28T06:26:13.820Z,5.00
2017-11-28T06:28:39.804Z,5.05
2017-11-28T06:31:05.791Z,5.28
2017-11-28T06:33:31.754Z,4.90
2017-11-28T06:35:59.534Z,5.10
2017-11-28T06:38:26.240Z,5.80
2017-11-28T06:40:52.213Z,4.97
2017-11-28T06:43:18.205Z,5.30
2017-11-28T06:45:44.168Z,5.50
2017-11-28T06:48:10.206Z,4.82
2017-11-28T06:50:36.209Z,4.80
2017-11-28T06:53:02.178Z,5.15
2017-11-28T06:55:28.142Z,5.40
2017-11-28T06:57:54.217Z,5.85
2017-11-28T07:00:20.185Z,5.20
2017-11-28T07:02:46.177Z,4.90
2017-11-28T07:05:12.913Z,5.68
2017-11-28T07:07:39.627Z,5.20
2017-11-28T07:10:05.622Z,5.35
2017-11-28T07:12:31.602Z,5.33
2017-11-28T07:14:58.319Z,4.90
2017-11-28T07:17:24.269Z,5.70
2017-11-28T07:19:51.005Z,5.15
2017-11-28T07:22:17.708Z,4.82
2017-11-28T07:24:43.674Z,5.30
2017-11-28T07:27:09.662Z,4.90
2017-11-28T07:29:35.634Z,4.90
2017-11-28T07:32:01.625Z,5.30
2017-11-28T07:34:28.365Z,5.12
2017-11-28T07:36:55.096Z,4.83
2017-11-28T07:39:21.811Z,5.00
2017-11-28T07:41:47.788Z,4.90
2017-11-28T07:44:13.790Z,4.70
2017-11-28T07:46:39.804Z,4.75
2017-11-28T07:49:06.546Z,4.22
2017-11-28T07:51:33.268Z,4.70
2017-11-28T07:53:59.286Z,4.60
2017-11-28T07:56:25.253Z,4.33
2017-11-28T07:58:51.220Z,4.40
2017-11-28T08:01:17.191Z,4.60
2017-11-28T08:03:43.162Z,4.97
2017-11-28T08:06:09.147Z,5.40
2017-11-28T08:08:35.327Z,4.90
2017-11-28T08:11:01.341Z,4.90
2017-11-28T08:13:27.341Z,5.10
2017-11-28T08:15:53.314Z,5.37
2017-11-28T08:18:20.046Z,6.30
2017-11-28T08:20:46.810Z,4.93
2017-11-28T08:23:12.827Z,5.20
2017-11-28T08:25:38.800Z,5.27
2017-11-28T08:28:04.845Z,5.10
2017-11-28T08:30:31.585Z,5.10
2017-11-28T08:32:58.330Z,4.85
2017-11-28T08:35:25.105Z,5.43
2017-11-28T08:37:51.106Z,5.62
2017-11-28T08:40:17.851Z,5.10
2017-11-28T08:42:43.882Z,5.22
2017-11-28T08:45:09.866Z,5.10
2017-11-28T08:47:35.853Z,5.03
2017-11-28T08:50:02.750Z,5.00
2017-11-28T08:52:29.490Z,4.60
2017-11-28T08:54:56.200Z,4.32
2017-11-28T08:57:22.213Z,5.20
2017-11-28T08:59:48.182Z,5.30
2017-11-28T09:02:14.175Z,5.53
2017-11-28T09:04:40.882Z,4.82
2017-11-28T09:07:06.878Z,4.60
2017-11-28T09:09:33.781Z,5.30
2017-11-28T09:12:00.534Z,4.78
2017-11-28T09:14:27.247Z,5.22
2017-11-28T09:16:53.234Z,5.20
2017-11-28T09:19:19.207Z,5.10
2017-11-28T09:21:45.925Z,5.28
2017-11-28T09:24:11.957Z,5.70
2017-11-28T09:26:37.956Z,5.90
2017-11-28T09:29:03.928Z,4.87
2017-11-28T09:31:31.053Z,5.53
2017-11-28T09:33:57.026Z,4.70
2017-11-28T09:36:23.027Z,4.87
2017-11-28T09:38:49.029Z,4.97
2017-11-28T09:41:15.764Z,4.60
2017-11-28T09:43:42.468Z,4.93
2017-11-28T09:46:08.474Z,4.37
2017-11-28T09:48:34.455Z,4.95
2017-11-28T09:51:01.166Z,5.30
2017-11-28T09:53:27.160Z,4.90
2017-11-28T09:55:53.134Z,5.78
2017-11-28T09:58:19.847Z,5.07
2017-11-28T10:00:45.859Z,4.72
2017-11-28T10:03:11.830Z,4.83
2017-11-28T10:05:38.541Z,5.20
2017-11-28T10:08:04.578Z,5.13
2017-11-28T10:10:31.410Z,4.87
2017-11-28T10:12:57.371Z,5.10
2017-11-28T10:15:23.349Z,5.03
2017-11-28T10:17:49.341Z,5.37
2017-11-28T10:20:15.317Z,5.40
2017-11-28T10:22:41.298Z,5.62
2017-11-28T10:25:07.257Z,5.20
2017-11-28T10:27:33.266Z,5.70
2017-11-28T10:29:59.970Z,5.60
2017-11-28T10:32:26.006Z,5.40
2017-11-28T10:34:52.014Z,5.90
2017-11-28T10:37:17.983Z,5.97
2017-11-28T10:39:44.740Z,5.50
2017-11-28T10:42:10.738Z,5.40
2017-11-28T10:44:37.480Z,5.22
2017-11-28T10:47:04.218Z,4.93
2017-11-28T10:49:30.951Z,5.50
2017-11-28T10:51:57.670Z,5.70
2017-11-28T10:54:23.646Z,6.00
2017-11-28T10:56:49.619Z,5.60
2017-11-28T10:59:15.589Z,5.40
2017-11-28T11:01:41.590Z,4.90
2017-11-28T11:04:07.558Z,5.40
2017-11-28T11:06:33.565Z,5.60
2017-11-28T11:08:59.541Z,5.68
2017-11-28T11:11:26.291Z,6.37
2017-11-28T11:13:53.046Z,5.97
2017-11-28T11:16:19.034Z,6.53
2017-11-28T11:18:45.036Z,6.18
2017-11-28T11:21:11.025Z,7.00
2017-11-28T11:23:37.013Z,6.55
2017-11-28T11:26:03.733Z,6.90
2017-11-28T11:28:30.462Z,6.25
2017-11-28T11:30:56.424Z,7.30
2017-11-28T11:33:22.397Z,6.45
2017-11-28T11:35:48.390Z,6.30
2017-11-28T11:38:14.389Z,6.20
2017-11-28T11:40:40.349Z,5.80
2017-11-28T11:43:06.338Z,5.75
2017-11-28T11:45:32.313Z,5.40
2017-11-28T11:47:58.455Z,5.50
2017-11-28T11:50:32.137Z,4.80
2017-11-28T11:52:58.134Z,4.22
2017-11-28T11:55:24.130Z,4.18
2017-11-28T11:57:50.229Z,4.40
2017-11-28T12:00:16.962Z,3.83
2017-11-28T12:02:42.953Z,3.70
2017-11-28T12:05:08.956Z,3.60
2017-11-28T12:07:34.970Z,3.30
2017-11-28T12:10:00.963Z,3.20
2017-11-28T12:12:27.692Z,3.00
2017-11-28T12:14:54.425Z,3.70
2017-11-28T12:17:20.433Z,3.30
2017-11-28T12:19:46.407Z,3.92
2017-11-28T12:22:12.419Z,3.10
2017-11-28T12:24:39.390Z,3.17
2017-11-28T12:27:05.392Z,3.03
2017-11-28T12:29:31.358Z,2.33
2017-11-28T12:31:57.346Z,2.60
2017-11-28T12:34:23.338Z,2.70
2017-11-28T12:36:50.087Z,2.50
2017-11-28T12:39:16.314Z,2.60
2017-11-28T12:41:42.307Z,2.70
2017-11-28T12:44:08.266Z,2.75
2017-11-28T12:46:34.270Z,2.30
2017-11-28T12:49:00.976Z,2.70
2017-11-28T12:51:26.959Z,2.30
2017-11-28T12:53:53.017Z,2.20
2017-11-28T12:56:18.991Z,2.42
2017-11-28T12:58:44.984Z,2.30
2017-11-28T13:01:12.986Z,2.35
2017-11-28T13:03:38.994Z,2.15
2017-11-28T13:06:04.982Z,1.70
2017-11-28T13:08:30.961Z,2.37
2017-11-28T13:10:56.950Z,2.40
2017-11-28T13:13:23.779Z,2.20
2017-11-28T13:15:50.506Z,2.25
2017-11-28T13:18:16.474Z,2.50
2017-11-28T13:20:42.530Z,3.00
2017-11-28T13:23:08.498Z,2.60
2017-11-28T13:25:35.205Z,2.17
2017-11-28T13:28:01.206Z,2.10
2017-11-28T13:30:27.209Z,2.35
2017-11-28T13:32:53.180Z,2.50
2017-11-28T13:35:19.186Z,2.40
2017-11-28T13:37:45.880Z,1.83
2017-11-28T13:40:11.859Z,2.47
2017-11-28T13:42:38.103Z,2.40
2017-11-28T13:45:04.822Z,2.10
2017-11-28T13:47:30.802Z,2.30
2017-11-28T13:49:56.790Z,2.47
2017-11-28T13:52:23.515Z,2.65
2017-11-28T13:54:49.479Z,2.33
2017-11-28T13:57:15.502Z,2.50
2017-11-28T13:59:41.522Z,2.40
2017-11-28T14:02:07.484Z,2.60
2017-11-28T14:04:33.465Z,2.40
2017-11-28T14:06:59.440Z,2.55
2017-11-28T14:09:25.403Z,7.90
2017-11-28T14:11:51.453Z,31.27
2017-11-28T14:14:17.450Z,27.80
2017-11-28T14:16:43.476Z,2.50
2017-11-28T14:19:09.471Z,2.70
2017-11-28T14:21:36.205Z,2.60
2017-11-28T14:24:09.202Z,2.53
2017-11-28T14:26:36.858Z,2.30
2017-11-28T14:29:09.546Z,2.60
2017-11-28T14:31:41.638Z,2.70
2017-11-28T14:34:07.624Z,3.20
2017-11-28T14:36:34.353Z,2.20
2017-11-28T14:39:07.075Z,2.70
2017-11-28T14:41:43.041Z,2.45
2017-11-28T14:44:09.068Z,2.75
2017-11-28T14:46:35.065Z,2.90
2017-11-28T14:49:01.053Z,3.00
2017-11-28T14:51:36.793Z,2.90
2017-11-28T14:54:08.735Z,3.00
2017-11-28T14:56:36.642Z,3.20
2017-11-28T14:59:09.532Z,2.97
2017-11-28T15:01:42.520Z,2.40
2017-11-28T15:07:30.895Z,3.12
2017-11-28T15:10:03.038Z,2.40
2017-11-28T15:12:35.974Z,2.62
2017-11-28T15:15:08.169Z,2.50
2017-11-28T15:17:34.162Z,2.70
2017-11-28T15:20:01.987Z,2.72
2017-11-28T15:22:28.722Z,2.45
2017-11-28T15:24:57.396Z,2.80
2017-11-28T15:27:24.137Z,2.50
2017-11-28T15:29:50.875Z,2.70
2017-11-28T15:32:17.615Z,2.70
2017-11-28T15:34:44.333Z,3.00
2017-11-28T15:37:10.322Z,2.45
2017-11-28T15:39:37.115Z,2.97
2017-11-28T15:42:03.935Z,2.85
2017-11-28T15:44:29.894Z,3.27
2017-11-28T15:46:55.862Z,2.60
2017-11-28T15:49:21.858Z,2.70
2017-11-28T15:51:47.845Z,3.28
2017-11-28T15:54:14.557Z,2.90
2017-11-28T15:56:40.598Z,2.97
2017-11-28T15:59:06.560Z,2.62
2017-11-28T16:01:32.527Z,2.97
2017-11-28T16:03:58.583Z,3.70
2017-11-28T16:06:25.321Z,3.37
2017-11-28T16:08:52.043Z,2.90
2017-11-28T16:11:18.828Z,7.65
2017-11-28T16:13:44.818Z,12.00
2017-11-28T16:16:12.678Z,12.45
2017-11-28T16:18:39.382Z,5.30
2017-11-28T16:21:05.361Z,4.00
2017-11-28T16:23:31.525Z,3.28
2017-11-28T16:25:58.227Z,3.10
2017-11-28T16:28:24.254Z,3.20
2017-11-28T16:30:50.528Z,3.20
2017-11-28T16:33:16.548Z,2.83
2017-11-28T16:35:42.519Z,2.53
2017-11-28T16:38:08.510Z,2.70
2017-11-28T16:40:34.479Z,2.50
2017-11-28T16:43:00.477Z,2.50
2017-11-28T16:45:26.539Z,2.40
2017-11-28T16:47:53.264Z,2.00
2017-11-28T16:50:19.223Z,1.77
2017-11-28T16:52:45.232Z,1.45
2017-11-28T16:55:11.266Z,1.77
2017-11-28T16:57:37.293Z,1.40
2017-11-28T17:00:03.311Z,1.40
2017-11-28T17:02:29.340Z,1.50
2017-11-28T17:04:55.382Z,1.87
2017-11-28T17:07:21.359Z,2.20
2017-11-28T17:09:47.377Z,1.70
2017-11-28T17:12:13.367Z,1.60
2017-11-28T17:14:39.361Z,2.00
2017-11-28T17:17:06.105Z,2.03
2017-11-28T17:19:32.106Z,3.20
2017-11-28T17:21:58.108Z,3.00
2017-11-28T17:24:24.097Z,3.33
2017-11-28T17:26:50.176Z,3.03
2017-11-28T17:29:16.221Z,2.90
2017-11-28T17:31:42.981Z,2.72
2017-11-28T17:34:09.018Z,2.80
2017-11-28T17:36:35.045Z,3.40
2017-11-28T17:39:01.078Z,3.37
2017-11-28T17:41:27.352Z,3.50
2017-11-28T17:43:54.079Z,3.80
2017-11-28T17:46:20.125Z,5.53
2017-11-28T17:48:46.894Z,10.07
2017-11-28T17:51:12.882Z,4.28
2017-11-28T17:53:39.621Z,4.50
2017-11-28T17:56:06.369Z,4.20
2017-11-28T17:58:33.440Z,4.20
2017-11-28T18:00:59.439Z,4.43
2017-11-28T18:03:26.358Z,5.00
2017-11-28T18:05:52.337Z,4.78
2017-11-28T18:08:18.373Z,4.75
2017-11-28T18:10:44.403Z,5.28
2017-11-28T18:13:10.423Z,4.78
2017-11-28T18:15:36.406Z,4.95
2017-11-28T18:18:02.491Z,4.60
2017-11-28T18:20:28.482Z,4.80
2017-11-28T18:22:54.463Z,4.60
2017-11-28T18:25:21.199Z,4.40
2017-11-28T18:27:48.002Z,4.57
2017-11-28T18:30:14.973Z,5.00
2017-11-28T18:32:42.027Z,4.60
2017-11-28T18:35:08.739Z,4.97
2017-11-28T18:37:34.725Z,4.53
2017-11-28T18:40:00.909Z,5.30
2017-11-28T18:42:27.727Z,4.80
2017-11-28T18:44:53.746Z,5.72
2017-11-28T18:47:19.698Z,5.85
2017-11-28T18:49:46.432Z,5.50
2017-11-28T18:52:13.398Z,5.00
2017-11-28T18:54:39.357Z,5.22
2017-11-28T18:57:05.326Z,4.90
2017-11-28T18:59:32.667Z,5.10
2017-11-28T19:01:59.378Z,4.90
2017-11-28T19:04:25.342Z,4.60
2017-11-28T19:06:52.097Z,5.30
2017-11-28T19:09:18.088Z,5.07
2017-11-28T19:11:44.097Z,4.90
2017-11-28T19:14:10.165Z,5.05
2017-11-28T19:16:36.163Z,5.60
2017-11-28T19:19:02.902Z,5.45
2017-11-28T19:21:29.632Z,6.28
2017-11-28T19:23:56.361Z,5.45
2017-11-28T19:26:22.327Z,6.10
2017-11-28T19:28:48.322Z,5.10
2017-11-28T19:31:15.471Z,5.85
2017-11-28T19:33:42.180Z,5.90
2017-11-28T19:36:08.170Z,6.20
2017-11-28T19:38:34.554Z,6.00
2017-11-28T19:41:01.285Z,6.05
2017-11-28T19:43:27.260Z,6.07
2017-11-28T19:45:53.330Z,6.25
2017-11-28T19:48:19.322Z,6.40
2017-11-28T19:50:45.323Z,6.70
2017-11-28T19:53:11.423Z,7.03
2017-11-28T19:55:37.494Z,6.47
2017-11-28T19:58:03.481Z,6.47
2017-11-28T20:00:29.517Z,6.30
2017-11-28T20:02:55.510Z,6.70
2017-11-28T20:05:22.250Z,6.40
2017-11-28T20:07:49.022Z,6.18
2017-11-28T20:10:15.012Z,5.70
2017-11-28T20:12:41.735Z,5.60
2017-11-28T20:15:07.764Z,5.30
2017-11-28T20:17:34.514Z,5.82
2017-11-28T20:20:01.254Z,5.50
2017-11-28T20:22:28.097Z,5.80
2017-11-28T20:24:54.821Z,5.80
2017-11-28T20:27:21.578Z,5.60
2017-11-28T20:29:47.646Z,5.40
2017-11-28T20:32:13.727Z,5.45
2017-11-28T20:34:40.446Z,4.93
2017-11-28T20:37:07.203Z,5.20
2017-11-28T20:39:33.295Z,5.68
2017-11-28T20:41:59.265Z,6.03
2017-11-28T20:44:25.264Z,6.00
2017-11-28T20:46:52.031Z,5.40
2017-11-28T20:49:24.279Z,5.80
2017-11-28T20:51:59.628Z,6.03
2017-11-28T20:54:25.984Z,6.20
2017-11-28T20:56:51.974Z,5.50
2017-11-28T20:59:17.969Z,6.27
2017-11-28T21:01:44.325Z,6.03
2017-11-28T21:04:10.296Z,6.20
2017-11-28T21:06:36.320Z,7.05
2017-11-28T21:09:02.362Z,6.12
2017-11-28T21:11:28.367Z,6.35
2017-11-28T21:13:54.429Z,5.68
2017-11-28T21:16:21.178Z,6.10
2017-11-28T21:18:47.910Z,5.90
2017-11-28T21:21:13.914Z,6.47
2017-11-28T21:23:39.893Z,6.10
2017-11-28T21:26:05.874Z,6.10
2017-11-28T21:28:32.724Z,6.12
2017-11-28T21:30:58.704Z,7.10
2017-11-28T21:33:24.700Z,6.10
2017-11-28T21:35:50.730Z,6.60
2017-11-28T21:38:16.741Z,6.30
2017-11-28T21:40:42.733Z,7.10
2017-11-28T21:43:09.057Z,7.67
2017-11-28T21:45:35.784Z,7.70
2017-11-28T21:48:02.497Z,8.20
2017-11-28T21:50:28.535Z,8.55
2017-11-28T21:52:54.509Z,7.43
2017-11-28T21:55:20.489Z,8.00
2017-11-28T21:57:47.575Z,8.50
2017-11-28T22:00:13.594Z,7.87
2017-11-28T22:02:39.573Z,8.02
2017-11-28T22:05:05.577Z,8.27
2017-11-28T22:07:31.619Z,8.80
2017-11-28T22:09:57.602Z,9.00
2017-11-28T22:12:23.619Z,9.23
2017-11-28T22:14:49.633Z,8.67
2017-11-28T22:17:15.636Z,9.55
2017-11-28T22:19:41.618Z,9.90
2017-11-28T22:22:07.775Z,10.00
2017-11-28T22:24:34.561Z,8.98
2017-11-28T22:27:00.582Z,9.60
2017-11-28T22:29:26.616Z,10.43
2017-11-28T22:31:52.604Z,10.00
2017-11-28T22:34:18.738Z,11.30
2017-11-28T22:36:44.757Z,9.38
2017-11-28T22:39:10.826Z,10.50
2017-11-28T22:41:43.694Z,9.90
2017-11-28T22:44:09.687Z,10.50
2017-11-28T22:46:35.659Z,10.13
2017-11-28T22:49:01.671Z,10.70
2017-11-28T22:51:28.029Z,10.50
2017-11-28T22:53:54.748Z,10.05
2017-11-28T22:56:20.743Z,10.93
2017-11-28T22:58:46.786Z,11.00
2017-11-28T23:01:12.810Z,10.85
2017-11-28T23:03:38.867Z,11.27
2017-11-28T23:06:05.985Z,10.45
2017-11-28T23:08:31.988Z,10.77
2017-11-28T23:10:58.050Z,10.70
2017-11-28T23:13:24.828Z,10.38
2017-11-28T23:15:50.840Z,11.10
2017-11-28T23:18:16.810Z,10.68
2017-11-28T23:20:43.982Z,11.23
2017-11-28T23:23:10.746Z,11.57
2017-11-28T23:25:36.760Z,12.15
2017-11-28T23:28:02.785Z,12.13
2017-11-28T23:30:28.760Z,11.90
2017-11-28T23:32:54.752Z,11.38
2017-11-28T23:35:20.866Z,12.30
2017-11-28T23:37:46.895Z,13.90
2017-11-28T23:40:13.330Z,12.37
2017-11-28T23:42:39.303Z,13.02
2017-11-28T23:45:06.034Z,14.55
2017-11-28T23:47:32.058Z,12.90
2017-11-28T23:49:58.799Z,14.02
2017-11-28T23:52:25.551Z,14.20
2017-11-28T23:54:52.590Z,13.82
2017-11-28T23:57:19.337Z,13.80
2017-11-28T23:59:46.058Z,14.43
